ADDS METAR Data INFO
IDs: Format: Raw Decoded Include TAF

Data at: 0117 UTC 20 Feb 2018

KMKL 200053Z AUTO 16005KT 10SM CLR 21/16 A3007 RMK AO2 SLP179 T02110161
KMKL 192353Z 17007KT 10SM CLR 22/16 A3006 RMK AO2 SLP177 T02170161 10250 20206 53007
KMKL 192253Z 19011KT 10SM CLR 23/14 A3006 RMK AO2 SLP174 T02280144
KMKL 192153Z 20018G27KT 10SM FEW050 23/14 A3005 RMK AO2 PK WND 19027/2144 SLP171 T02330139
KMKL 192053Z 20016G24KT 10SM FEW040 24/15 A3004 RMK AO2 SLP170 T02440150 56024
KMKL 191953Z 18012G18KT 10SM FEW035 24/16 A3006 RMK AO2 SLP174 T02390156
KMKL 191853Z 19013G20KT 10SM CLR 22/15 A3008 RMK AO2 SLP183 T02170150
KMKL 191753Z 18014G22KT 10SM CLR 21/14 A3011 RMK AO2 SLP195 T02060144 10222 20156 50000
KMKL 191653Z 17013KT 10SM CLR 22/15 A3012 RMK AO2 SLP197 T02170150
KMKL 191553Z 19016G20KT 10SM FEW021 21/16 A3012 RMK AO2 SLP197 T02110156
KMKL 191453Z 19014G22KT 10SM CLR 19/16 A3011 RMK AO2 SLP194 T01890156 51004
KMKL 191353Z 18012KT 10SM FEW012 17/15 A3011 RMK AO2 SLP195 T01670150
KMKL 191345Z 19010KT 10SM SCT010 17/15 A3011 RMK AO2 T01670150
KMKL 191332Z 19013KT 10SM BKN010 16/15 A3011 RMK AO2 CIG 009V012 T01610150
KMKL 191315Z 19013G22KT 10SM OVC009 16/15 A3010 RMK AO2 T01610150
KMKL 191253Z 18011G17KT 10SM BKN010 16/14 A3010 RMK AO2 SLP193 T01560144
KMKL 191204Z AUTO 18009G18KT 10SM BKN013 16/14 A3010 RMK AO2 T01560139
KMKL 191153Z AUTO 18014G20KT 10SM FEW013 16/14 A3010 RMK AO2 SLP190 T01560139 10156 20133 51004
KMKL 191053Z AUTO 17010KT 10SM CLR 15/14 A3010 RMK AO2 SLP191 T01500139
KMKL 190953Z AUTO 18009KT 10SM SCT010 BKN036 15/14 A3010 RMK AO2 SLP189 T01500139
KMKL 190906Z AUTO 17008KT 10SM SCT009 14/13 A3009 RMK AO2 T01390133
KMKL 190853Z AUTO 17009KT 10SM BKN009 14/13 A3009 RMK AO2 SLP187 T01390133 58003
KMKL 190753Z AUTO 18005KT 10SM OVC009 14/13 A3009 RMK AO2 CIG 007V012 SLP189 T01390128
KMKL 190751Z AUTO 16008KT 10SM OVC009 14/13 A3009 RMK AO2
KMKL 190741Z AUTO 17008KT 10SM OVC010 14/13 A3009 RMK AO2 CIG 008V012 T01390128
KMKL 190653Z AUTO 18008KT 10SM OVC007 14/13 A3010 RMK AO2 SLP190 T01390128
KMKL 190553Z AUTO 17008KT 10SM OVC007 13/13 A3009 RMK AO2 SLP189 T01330128 10150 20128 401611006 55005
KMKL 190453Z AUTO 18009KT 10SM OVC008 13/12 A3009 RMK AO2 SLP188 T01330117
KMKL 190426Z AUTO 18008KT 10SM OVC009 13/12 A3009 RMK AO2 T01280117
KMKL 190353Z AUTO 17010KT 10SM OVC010 13/11 A3008 RMK AO2 SLP186 T01280111
KMKL 190253Z AUTO 18005KT 10SM OVC012 13/11 A3011 RMK AO2 SLP195 T01280106 53004
KMKL 190228Z AUTO 18006KT 10SM OVC014 13/11 A3010 RMK AO2 T01330106
KMKL 190153Z AUTO 17008KT 10SM OVC017 13/09 A3009 RMK AO2 SLP192 T01330094
KMKL 190053Z AUTO 16009KT 10SM OVC020 14/09 A3009 RMK AO2 SLP191 T01390089
KMKL 182353Z 17007KT 10SM OVC025 15/07 A3009 RMK AO2 SLP191 T01500067 10161 20122 58005
KMKL 182316Z 19004KT 10SM BKN028 OVC055 15/05 A3011 RMK AO2 T01500050
KMKL 182253Z 16009KT 10SM BKN034 BKN055 15/04 A3010 RMK AO2 SLP193 T01500044
KMKL 182153Z 16005KT 10SM OVC065 16/03 A3012 RMK AO2 SLP199 T01560028
KMKL 182053Z 14009KT 10SM CLR 16/01 A3011 RMK AO2 SLP197 T01610011 56040
KMKL 181953Z 16008G15KT 10SM CLR 14/01 A3014 RMK AO2 SLP209 T01440011
KMKL 181853Z VRB06KT 10SM CLR 13/01 A3018 RMK AO2 SLP222 T01330011
KMKL 181753Z 11009KT 10SM CLR 13/02 A3023 RMK AO2 SLP237 CONTRAILS T01280022 10128 21006 58027
KMKL 181653Z 13010G17KT 10SM CLR 10/01 A3026 RMK AO2 SLP248 CONTRAILS T01000011
KMKL 181553Z 10007KT 10SM CLR 08/04 A3028 RMK AO2 SLP254 T00780039
KMKL 181453Z 11008KT 10SM CLR 04/03 A3031 RMK AO2 SLP265 T00390033 58002
KMKL 181405Z 09005KT 5SM BR SCT001 02/02 A3032 RMK AO2 T00170017
KMKL 181401Z 08005KT 2 1/2SM BR BKN001 02/02 A3032 RMK AO2 T00170017
KMKL 181353Z 10004KT 1/2SM FG VV001 01/01 A3032 RMK AO2 SLP269 T00060006